Canyon Crest, California
Current Conditions -  °F | °C
As of 10:53 AM on Thursday 23 Oct 2014 (Local Time) from KRAL Reporting Station
Clear Clear  
Wind Chill: 81°   Ceiling: Unl
Heat Index: 81°   Visibility: 10mi
Dew Point: 31°   Wind: 0mph
Humidity: 16%   Direction: NA
Pressure: 30.01"   Gusts: NA
Location:  33.9841°N, 117.329°W
Report Text: KRAL 231753Z 00000KT 10SM CLR 27/M01 A3001 RMK AO2 SLP146 T02721006 10272 20150 50005
Loading
Personal Weather Stations






























Interactive Weather Map
Tropical Storm Tracking
New forecast layout! Learn more

10-Day Weather Forecast

Advertisements
Track Severe Weather on mobile